sensor_id;sensor_type;location;lat;lon;timestamp;pressure;altitude;pressure_sealevel;temperature;humidity
20612;BME280;10465;42.686;23.364;2023-05-18T00:01:00;94420.56;;;14.59;100.00
20612;BME280;10465;42.686;23.364;2023-05-18T00:03:27;94471.41;;;14.98;100.00
20612;BME280;10465;42.686;23.364;2023-05-18T00:05:54;94474.06;;;14.98;100.00
20612;BME280;10465;42.686;23.364;2023-05-18T00:08:22;94478.78;;;14.89;100.00
20612;BME280;10465;42.686;23.364;2023-05-18T00:10:47;94466.41;;;14.81;100.00
20612;BME280;10465;42.686;23.364;2023-05-18T00:13:13;94439.63;;;14.62;100.00
20612;BME280;10465;42.686;23.364;2023-05-18T00:15:38;94487.13;;;14.88;100.00
20612;BME280;10465;42.686;23.364;2023-05-18T00:18:04;94483.69;;;14.87;100.00
20612;BME280;10465;42.686;23.364;2023-05-18T00:20:29;94454.84;;;14.61;100.00
20612;BME280;10465;42.686;23.364;2023-05-18T00:22:55;94480.94;;;14.83;100.00
20612;BME280;10465;42.686;23.364;2023-05-18T00:25:21;94475.41;;;14.76;100.00
20612;BME280;10465;42.686;23.364;2023-05-18T00:27:46;94489.03;;;14.87;100.00
20612;BME280;10465;42.686;23.364;2023-05-18T00:30:14;94482.56;;;14.88;100.00
20612;BME280;10465;42.686;23.364;2023-05-18T00:32:40;94468.44;;;14.72;100.00
20612;BME280;10465;42.686;23.364;2023-05-18T00:35:05;94476.19;;;14.77;99.95
20612;BME280;10465;42.686;23.364;2023-05-18T00:37:31;94486.59;;;14.82;99.35
20612;BME280;10465;42.686;23.364;2023-05-18T00:39:56;94479.78;;;14.69;100.00
20612;BME280;10465;42.686;23.364;2023-05-18T00:42:21;94483.31;;;14.73;98.76
20612;BME280;10465;42.686;23.364;2023-05-18T00:44:47;94421.19;;;14.28;98.78
20612;BME280;10465;42.686;23.364;2023-05-18T00:47:12;94488.63;;;14.73;99.40
20612;BME280;10465;42.686;23.364;2023-05-18T00:49:38;94482.34;;;14.65;98.91
20612;BME280;10465;42.686;23.364;2023-05-18T00:52:04;94475.00;;;14.62;98.66
20612;BME280;10465;42.686;23.364;2023-05-18T00:54:30;94460.41;;;14.56;99.12
20612;BME280;10465;42.686;23.364;2023-05-18T00:56:57;94464.81;;;14.64;99.13
20612;BME280;10465;42.686;23.364;2023-05-18T00:59:27;94475.38;;;14.61;99.24
20612;BME280;10465;42.686;23.364;2023-05-18T01:01:53;94461.66;;;14.46;100.00
20612;BME280;10465;42.686;23.364;2023-05-18T01:04:18;94460.97;;;14.49;100.00
20612;BME280;10465;42.686;23.364;2023-05-18T01:06:45;94467.94;;;14.54;100.00
20612;BME280;10465;42.686;23.364;2023-05-18T01:09:12;94440.84;;;14.24;100.00
20612;BME280;10465;42.686;23.364;2023-05-18T01:14:17;94471.41;;;14.54;100.00
20612;BME280;10465;42.686;23.364;2023-05-18T01:16:50;94443.94;;;14.38;100.00
20612;BME280;10465;42.686;23.364;2023-05-18T01:27:44;94475.88;;;14.38;100.00
20612;BME280;10465;42.686;23.364;2023-05-18T01:30:13;94493.50;;;14.43;100.00
20612;BME280;10465;42.686;23.364;2023-05-18T01:32:39;94470.78;;;14.33;100.00
20612;BME280;10465;42.686;23.364;2023-05-18T01:35:10;94480.59;;;14.45;100.00
20612;BME280;10465;42.686;23.364;2023-05-18T01:37:36;94489.72;;;14.44;100.00
20612;BME280;10465;42.686;23.364;2023-05-18T01:40:02;94479.84;;;14.44;100.00
20612;BME280;10465;42.686;23.364;2023-05-18T01:42:29;94458.56;;;14.32;100.00
20612;BME280;10465;42.686;23.364;2023-05-18T01:45:02;94465.66;;;14.40;100.00
20612;BME280;10465;42.686;23.364;2023-05-18T01:47:32;94465.84;;;14.47;100.00
20612;BME280;10465;42.686;23.364;2023-05-18T01:50:02;94462.31;;;14.43;100.00
20612;BME280;10465;42.686;23.364;2023-05-18T01:52:32;94469.75;;;14.38;100.00
20612;BME280;10465;42.686;23.364;2023-05-18T01:55:02;94475.78;;;14.34;100.00
20612;BME280;10465;42.686;23.364;2023-05-18T01:57:30;94484.31;;;14.28;100.00
20612;BME280;10465;42.686;23.364;2023-05-18T02:00:01;94473.69;;;14.28;100.00
20612;BME280;10465;42.686;23.364;2023-05-18T02:02:30;94478.44;;;14.34;100.00
20612;BME280;10465;42.686;23.364;2023-05-18T02:04:55;94489.81;;;14.47;100.00
20612;BME280;10465;42.686;23.364;2023-05-18T02:07:20;94486.50;;;14.50;100.00
20612;BME280;10465;42.686;23.364;2023-05-18T02:09:46;94487.28;;;14.51;100.00
20612;BME280;10465;42.686;23.364;2023-05-18T02:12:12;94477.28;;;14.48;100.00
20612;BME280;10465;42.686;23.364;2023-05-18T02:14:37;94500.00;;;14.57;100.00
20612;BME280;10465;42.686;23.364;2023-05-18T02:17:03;94489.13;;;14.63;100.00
20612;BME280;10465;42.686;23.364;2023-05-18T02:19:31;94491.44;;;14.64;100.00
20612;BME280;10465;42.686;23.364;2023-05-18T02:21:56;94472.84;;;14.52;100.00
20612;BME280;10465;42.686;23.364;2023-05-18T02:24:22;94483.88;;;14.66;100.00
20612;BME280;10465;42.686;23.364;2023-05-18T02:26:49;94486.91;;;14.65;100.00
20612;BME280;10465;42.686;23.364;2023-05-18T02:29:15;94491.97;;;14.70;100.00
20612;BME280;10465;42.686;23.364;2023-05-18T02:31:41;94467.94;;;14.54;100.00
20612;BME280;10465;42.686;23.364;2023-05-18T02:34:06;94494.63;;;14.70;100.00
20612;BME280;10465;42.686;23.364;2023-05-18T02:36:33;94491.88;;;14.66;100.00
20612;BME280;10465;42.686;23.364;2023-05-18T02:39:04;94486.22;;;14.68;100.00
20612;BME280;10465;42.686;23.364;2023-05-18T02:41:31;94450.34;;;14.37;100.00
20612;BME280;10465;42.686;23.364;2023-05-18T02:43:56;94498.41;;;14.69;100.00
20612;BME280;10465;42.686;23.364;2023-05-18T02:46:22;94477.41;;;14.51;100.00
20612;BME280;10465;42.686;23.364;2023-05-18T02:48:47;94503.75;;;14.69;100.00
20612;BME280;10465;42.686;23.364;2023-05-18T02:51:13;94494.13;;;14.64;100.00
20612;BME280;10465;42.686;23.364;2023-05-18T02:53:38;94494.47;;;14.63;100.00
20612;BME280;10465;42.686;23.364;2023-05-18T02:56:04;94496.00;;;14.64;100.00
20612;BME280;10465;42.686;23.364;2023-05-18T02:58:30;94517.06;;;14.69;100.00
20612;BME280;10465;42.686;23.364;2023-05-18T03:00:55;94524.63;;;14.67;100.00
20612;BME280;10465;42.686;23.364;2023-05-18T03:03:21;94530.75;;;14.67;100.00
20612;BME280;10465;42.686;23.364;2023-05-18T03:05:48;94505.47;;;14.49;100.00
20612;BME280;10465;42.686;23.364;2023-05-18T03:08:20;94534.50;;;14.66;100.00
20612;BME280;10465;42.686;23.364;2023-05-18T03:10:47;94540.28;;;14.68;100.00
20612;BME280;10465;42.686;23.364;2023-05-18T03:13:12;94537.09;;;14.63;100.00
20612;BME280;10465;42.686;23.364;2023-05-18T03:15:38;94546.81;;;14.71;100.00
20612;BME280;10465;42.686;23.364;2023-05-18T03:18:05;94544.06;;;14.67;100.00
20612;BME280;10465;42.686;23.364;2023-05-18T03:20:30;94555.63;;;14.59;100.00
20612;BME280;10465;42.686;23.364;2023-05-18T03:22:56;94551.84;;;14.60;100.00
20612;BME280;10465;42.686;23.364;2023-05-18T03:25:22;94559.06;;;14.59;100.00
20612;BME280;10465;42.686;23.364;2023-05-18T03:27:52;94561.38;;;14.61;100.00
20612;BME280;10465;42.686;23.364;2023-05-18T03:30:18;94562.16;;;14.62;100.00
20612;BME280;10465;42.686;23.364;2023-05-18T03:32:47;94542.53;;;14.54;100.00
20612;BME280;10465;42.686;23.364;2023-05-18T03:35:14;94561.94;;;14.67;100.00
20612;BME280;10465;42.686;23.364;2023-05-18T03:37:39;94558.03;;;14.64;100.00
20612;BME280;10465;42.686;23.364;2023-05-18T03:40:12;94549.53;;;14.58;100.00
20612;BME280;10465;42.686;23.364;2023-05-18T03:42:39;94564.16;;;14.65;100.00
20612;BME280;10465;42.686;23.364;2023-05-18T03:45:06;94571.47;;;14.68;100.00
20612;BME280;10465;42.686;23.364;2023-05-18T03:47:32;94566.91;;;14.68;100.00
20612;BME280;10465;42.686;23.364;2023-05-18T03:49:58;94571.56;;;14.71;100.00
20612;BME280;10465;42.686;23.364;2023-05-18T03:52:23;94575.31;;;14.70;100.00
20612;BME280;10465;42.686;23.364;2023-05-18T03:54:49;94569.94;;;14.67;100.00
20612;BME280;10465;42.686;23.364;2023-05-18T03:57:16;94575.31;;;14.70;100.00
20612;BME280;10465;42.686;23.364;2023-05-18T03:59:42;94575.88;;;14.76;100.00
20612;BME280;10465;42.686;23.364;2023-05-18T04:02:08;94578.09;;;14.74;100.00
20612;BME280;10465;42.686;23.364;2023-05-18T04:04:34;94557.72;;;14.53;100.00
20612;BME280;10465;42.686;23.364;2023-05-18T04:07:00;94589.53;;;14.74;100.00
20612;BME280;10465;42.686;23.364;2023-05-18T04:09:27;94564.06;;;14.49;100.00
20612;BME280;10465;42.686;23.364;2023-05-18T04:11:54;94589.78;;;14.69;100.00
20612;BME280;10465;42.686;23.364;2023-05-18T04:14:19;94597.09;;;14.72;100.00
20612;BME280;10465;42.686;23.364;2023-05-18T04:16:45;94563.16;;;14.57;100.00
20612;BME280;10465;42.686;23.364;2023-05-18T04:19:11;94579.34;;;14.64;100.00
20612;BME280;10465;42.686;23.364;2023-05-18T04:21:37;94573.50;;;14.58;100.00
20612;BME280;10465;42.686;23.364;2023-05-18T04:24:04;94594.19;;;14.77;100.00
20612;BME280;10465;42.686;23.364;2023-05-18T04:26:34;94583.00;;;14.72;100.00
20612;BME280;10465;42.686;23.364;2023-05-18T04:29:02;94588.41;;;14.88;100.00
20612;BME280;10465;42.686;23.364;2023-05-18T04:31:28;94594.03;;;14.86;100.00
20612;BME280;10465;42.686;23.364;2023-05-18T04:33:54;94597.72;;;14.81;100.00
20612;BME280;10465;42.686;23.364;2023-05-18T04:36:21;94594.28;;;14.81;100.00
20612;BME280;10465;42.686;23.364;2023-05-18T04:38:51;94578.78;;;14.71;100.00
20612;BME280;10465;42.686;23.364;2023-05-18T04:41:17;94600.50;;;14.85;100.00
20612;BME280;10465;42.686;23.364;2023-05-18T04:43:45;94595.06;;;14.81;100.00
20612;BME280;10465;42.686;23.364;2023-05-18T04:46:11;94567.81;;;14.60;100.00
20612;BME280;10465;42.686;23.364;2023-05-18T04:48:38;94609.63;;;14.84;100.00
20612;BME280;10465;42.686;23.364;2023-05-18T04:51:03;94582.69;;;14.61;100.00
20612;BME280;10465;42.686;23.364;2023-05-18T04:53:30;94616.63;;;14.76;100.00
20612;BME280;10465;42.686;23.364;2023-05-18T04:55:58;94616.63;;;14.76;100.00
20612;BME280;10465;42.686;23.364;2023-05-18T04:58:27;94614.06;;;14.80;100.00
20612;BME280;10465;42.686;23.364;2023-05-18T05:00:52;94622.28;;;14.87;100.00
20612;BME280;10465;42.686;23.364;2023-05-18T05:03:18;94630.34;;;14.91;100.00
20612;BME280;10465;42.686;23.364;2023-05-18T05:05:43;94623.34;;;14.86;100.00
20612;BME280;10465;42.686;23.364;2023-05-18T05:08:09;94611.28;;;14.76;100.00
20612;BME280;10465;42.686;23.364;2023-05-18T05:10:36;94630.34;;;14.91;100.00
20612;BME280;10465;42.686;23.364;2023-05-18T05:13:02;94635.59;;;14.87;100.00
20612;BME280;10465;42.686;23.364;2023-05-18T05:15:28;94645.25;;;14.92;100.00
20612;BME280;10465;42.686;23.364;2023-05-18T05:17:54;94654.25;;;14.87;100.00
20612;BME280;10465;42.686;23.364;2023-05-18T05:20:19;94658.09;;;14.90;100.00
20612;BME280;10465;42.686;23.364;2023-05-18T05:22:45;94652.66;;;14.86;100.00
20612;BME280;10465;42.686;23.364;2023-05-18T05:25:11;94642.91;;;14.78;100.00
20612;BME280;10465;42.686;23.364;2023-05-18T05:27:36;94653.38;;;14.83;100.00
20612;BME280;10465;42.686;23.364;2023-05-18T05:30:02;94645.69;;;14.81;100.00
20612;BME280;10465;42.686;23.364;2023-05-18T05:32:28;94657.69;;;14.88;100.00
20612;BME280;10465;42.686;23.364;2023-05-18T05:34:54;94623.00;;;14.59;100.00
20612;BME280;10465;42.686;23.364;2023-05-18T05:37:19;94664.56;;;14.89;100.00
20612;BME280;10465;42.686;23.364;2023-05-18T05:39:45;94641.03;;;14.78;100.00
20612;BME280;10465;42.686;23.364;2023-05-18T05:42:10;94642.03;;;14.74;100.00
20612;BME280;10465;42.686;23.364;2023-05-18T05:44:36;94659.56;;;14.87;100.00
20612;BME280;10465;42.686;23.364;2023-05-18T05:47:02;94666.00;;;14.86;100.00
20612;BME280;10465;42.686;23.364;2023-05-18T05:49:27;94646.06;;;14.68;100.00
20612;BME280;10465;42.686;23.364;2023-05-18T05:51:53;94668.91;;;14.81;100.00
20612;BME280;10465;42.686;23.364;2023-05-18T05:54:18;94669.13;;;14.88;100.00
20612;BME280;10465;42.686;23.364;2023-05-18T05:56:44;94674.00;;;14.86;100.00
20612;BME280;10465;42.686;23.364;2023-05-18T05:59:09;94683.22;;;14.89;100.00
20612;BME280;10465;42.686;23.364;2023-05-18T06:01:35;94668.78;;;14.77;100.00
20612;BME280;10465;42.686;23.364;2023-05-18T06:04:01;94669.47;;;14.74;100.00
20612;BME280;10465;42.686;23.364;2023-05-18T06:06:30;94672.03;;;14.71;100.00
20612;BME280;10465;42.686;23.364;2023-05-18T06:08:56;94627.09;;;14.32;100.00
20612;BME280;10465;42.686;23.364;2023-05-18T06:11:21;94679.91;;;14.67;100.00
20612;BME280;10465;42.686;23.364;2023-05-18T06:13:47;94685.25;;;14.67;100.00
20612;BME280;10465;42.686;23.364;2023-05-18T06:16:13;94686.44;;;14.70;100.00
20612;BME280;10465;42.686;23.364;2023-05-18T06:18:38;94680.94;;;14.63;100.00
20612;BME280;10465;42.686;23.364;2023-05-18T06:21:04;94688.13;;;14.62;100.00
20612;BME280;10465;42.686;23.364;2023-05-18T06:23:30;94663.69;;;14.48;100.00
20612;BME280;10465;42.686;23.364;2023-05-18T06:25:55;94693.91;;;14.64;100.00
20612;BME280;10465;42.686;23.364;2023-05-18T06:28:20;94669.94;;;14.52;100.00
20612;BME280;10465;42.686;23.364;2023-05-18T06:30:46;94694.56;;;14.73;100.00
20612;BME280;10465;42.686;23.364;2023-05-18T06:33:13;94693.13;;;14.76;100.00
20612;BME280;10465;42.686;23.364;2023-05-18T06:35:38;94686.56;;;14.73;100.00
20612;BME280;10465;42.686;23.364;2023-05-18T06:38:04;94672.34;;;14.69;100.00
20612;BME280;10465;42.686;23.364;2023-05-18T06:40:30;94685.91;;;14.76;100.00
20612;BME280;10465;42.686;23.364;2023-05-18T06:42:55;94700.84;;;14.93;100.00
20612;BME280;10465;42.686;23.364;2023-05-18T06:45:21;94692.09;;;14.93;100.00
20612;BME280;10465;42.686;23.364;2023-05-18T06:47:46;94709.94;;;15.17;100.00
20612;BME280;10465;42.686;23.364;2023-05-18T06:50:12;94704.25;;;15.18;100.00
20612;BME280;10465;42.686;23.364;2023-05-18T06:52:38;94707.00;;;15.22;99.20
20612;BME280;10465;42.686;23.364;2023-05-18T06:55:04;94722.88;;;15.30;97.50
20612;BME280;10465;42.686;23.364;2023-05-18T06:57:29;94703.59;;;15.09;97.38
20612;BME280;10465;42.686;23.364;2023-05-18T06:59:56;94727.44;;;15.30;97.66
20612;BME280;10465;42.686;23.364;2023-05-18T07:02:21;94719.22;;;15.23;97.34
20612;BME280;10465;42.686;23.364;2023-05-18T07:04:47;94729.13;;;15.22;96.01
20612;BME280;10465;42.686;23.364;2023-05-18T07:07:14;94746.69;;;15.23;94.49
20612;BME280;10465;42.686;23.364;2023-05-18T07:09:39;94749.00;;;15.25;95.14
20612;BME280;10465;42.686;23.364;2023-05-18T07:12:10;94743.78;;;15.28;96.42
20612;BME280;10465;42.686;23.364;2023-05-18T07:14:36;94728.63;;;15.04;94.64
20612;BME280;10465;42.686;23.364;2023-05-18T07:17:01;94735.94;;;15.07;93.59
20612;BME280;10465;42.686;23.364;2023-05-18T07:19:28;94738.16;;;15.05;93.87
20612;BME280;10465;42.686;23.364;2023-05-18T07:21:53;94756.81;;;15.05;91.84
20612;BME280;10465;42.686;23.364;2023-05-18T07:24:21;94736.28;;;14.81;91.40
20612;BME280;10465;42.686;23.364;2023-05-18T07:26:46;94761.94;;;14.98;90.19
20612;BME280;10465;42.686;23.364;2023-05-18T07:29:11;94731.19;;;14.76;89.51
20612;BME280;10465;42.686;23.364;2023-05-18T07:31:37;94761.28;;;14.89;89.27
20612;BME280;10465;42.686;23.364;2023-05-18T07:34:05;94764.41;;;14.91;88.96
20612;BME280;10465;42.686;23.364;2023-05-18T07:36:31;94740.41;;;14.79;88.73
20612;BME280;10465;42.686;23.364;2023-05-18T07:38:57;94749.84;;;14.89;89.29
20612;BME280;10465;42.686;23.364;2023-05-18T07:41:23;94767.16;;;14.95;89.21
20612;BME280;10465;42.686;23.364;2023-05-18T07:43:49;94775.06;;;15.03;88.76
20612;BME280;10465;42.686;23.364;2023-05-18T07:46:15;94766.06;;;14.96;88.87
20612;BME280;10465;42.686;23.364;2023-05-18T07:48:41;94784.94;;;15.03;89.82
20612;BME280;10465;42.686;23.364;2023-05-18T07:51:06;94741.75;;;14.73;89.51
20612;BME280;10465;42.686;23.364;2023-05-18T07:53:32;94785.72;;;15.03;90.32
20612;BME280;10465;42.686;23.364;2023-05-18T07:55:58;94795.03;;;14.97;88.70
20612;BME280;10465;42.686;23.364;2023-05-18T07:58:24;94796.38;;;14.91;87.29
20612;BME280;10465;42.686;23.364;2023-05-18T08:00:50;94784.03;;;14.87;87.63
20612;BME280;10465;42.686;23.364;2023-05-18T08:03:16;94802.25;;;14.97;88.34
20612;BME280;10465;42.686;23.364;2023-05-18T08:05:42;94804.03;;;14.93;89.11
20612;BME280;10465;42.686;23.364;2023-05-18T08:08:07;94808.34;;;14.97;87.57
20612;BME280;10465;42.686;23.364;2023-05-18T08:10:36;94792.47;;;14.89;87.57
20612;BME280;10465;42.686;23.364;2023-05-18T08:13:02;94815.81;;;15.04;87.81
20612;BME280;10465;42.686;23.364;2023-05-18T08:15:27;94811.59;;;15.03;88.31
20612;BME280;10465;42.686;23.364;2023-05-18T08:17:53;94783.72;;;14.88;87.70
20612;BME280;10465;42.686;23.364;2023-05-18T08:20:19;94817.34;;;15.05;85.83
20612;BME280;10465;42.686;23.364;2023-05-18T08:22:44;94828.91;;;15.09;85.15
20612;BME280;10465;42.686;23.364;2023-05-18T08:25:10;94836.47;;;15.07;83.90
20612;BME280;10465;42.686;23.364;2023-05-18T08:27:35;94844.00;;;15.05;83.74
20612;BME280;10465;42.686;23.364;2023-05-18T08:30:01;94836.66;;;15.02;84.17
20612;BME280;10465;42.686;23.364;2023-05-18T08:32:26;94844.25;;;15.12;85.98
20612;BME280;10465;42.686;23.364;2023-05-18T08:34:53;94852.34;;;15.16;86.22
20612;BME280;10465;42.686;23.364;2023-05-18T08:37:19;94857.22;;;15.14;85.47
20612;BME280;10465;42.686;23.364;2023-05-18T08:39:45;94855.34;;;15.14;84.91
20612;BME280;10465;42.686;23.364;2023-05-18T08:42:18;94823.47;;;14.93;84.00
20612;BME280;10465;42.686;23.364;2023-05-18T08:44:45;94854.56;;;15.01;83.46
20612;BME280;10465;42.686;23.364;2023-05-18T08:47:13;94866.88;;;15.06;83.65
20612;BME280;10465;42.686;23.364;2023-05-18T08:49:41;94859.47;;;14.99;83.29
20612;BME280;10465;42.686;23.364;2023-05-18T08:52:07;94865.69;;;15.03;83.54
20612;BME280;10465;42.686;23.364;2023-05-18T08:54:35;94862.13;;;14.99;82.61
20612;BME280;10465;42.686;23.364;2023-05-18T08:57:04;94847.00;;;14.91;82.13
20612;BME280;10465;42.686;23.364;2023-05-18T08:59:32;94876.00;;;15.05;82.35
20612;BME280;10465;42.686;23.364;2023-05-18T09:02:00;94877.34;;;15.11;82.40
20612;BME280;10465;42.686;23.364;2023-05-18T09:04:26;94862.13;;;14.99;82.17
20612;BME280;10465;42.686;23.364;2023-05-18T09:06:53;94883.88;;;15.14;82.11
20612;BME280;10465;42.686;23.364;2023-05-18T09:09:20;94876.34;;;15.16;81.03
20612;BME280;10465;42.686;23.364;2023-05-18T09:11:46;94879.31;;;15.02;80.33
20612;BME280;10465;42.686;23.364;2023-05-18T09:14:12;94884.00;;;15.17;80.48
20612;BME280;10465;42.686;23.364;2023-05-18T09:16:38;94889.09;;;15.22;80.92
20612;BME280;10465;42.686;23.364;2023-05-18T09:19:04;94867.78;;;15.10;81.06
20612;BME280;10465;42.686;23.364;2023-05-18T09:21:30;94892.13;;;15.33;80.15
20612;BME280;10465;42.686;23.364;2023-05-18T09:23:57;94893.25;;;15.32;79.20
20612;BME280;10465;42.686;23.364;2023-05-18T09:26:23;94895.56;;;15.33;79.73
20612;BME280;10465;42.686;23.364;2023-05-18T09:28:51;94864.22;;;15.18;78.94
20612;BME280;10465;42.686;23.364;2023-05-18T09:31:18;94897.09;;;15.47;79.01
20612;BME280;10465;42.686;23.364;2023-05-18T09:33:45;94903.56;;;15.46;79.34
20612;BME280;10465;42.686;23.364;2023-05-18T09:36:14;94890.09;;;15.42;79.39
20612;BME280;10465;42.686;23.364;2023-05-18T09:38:42;94903.66;;;15.49;80.15
20612;BME280;10465;42.686;23.364;2023-05-18T09:41:13;94891.34;;;15.32;79.96
20612;BME280;10465;42.686;23.364;2023-05-18T09:43:40;94898.00;;;15.39;79.08
20612;BME280;10465;42.686;23.364;2023-05-18T09:46:09;94914.34;;;15.49;78.10
20612;BME280;10465;42.686;23.364;2023-05-18T09:48:36;94888.78;;;15.36;79.28
20612;BME280;10465;42.686;23.364;2023-05-18T09:51:06;94910.66;;;15.54;80.00
20612;BME280;10465;42.686;23.364;2023-05-18T09:53:34;94916.53;;;15.59;81.15
20612;BME280;10465;42.686;23.364;2023-05-18T09:56:05;94917.91;;;15.53;82.48
20612;BME280;10465;42.686;23.364;2023-05-18T09:58:33;94900.13;;;15.45;83.05
20612;BME280;10465;42.686;23.364;2023-05-18T10:01:00;94920.69;;;15.57;83.50
20612;BME280;10465;42.686;23.364;2023-05-18T10:03:32;94897.78;;;15.31;83.90
20612;BME280;10465;42.686;23.364;2023-05-18T10:06:16;94908.78;;;15.42;84.68
20612;BME280;10465;42.686;23.364;2023-05-18T10:08:44;94924.78;;;15.54;84.25
20612;BME280;10465;42.686;23.364;2023-05-18T10:11:10;94922.47;;;15.53;84.19
20612;BME280;10465;42.686;23.364;2023-05-18T10:13:36;94899.56;;;15.40;84.07
20612;BME280;10465;42.686;23.364;2023-05-18T10:16:04;94925.25;;;15.56;84.36
20612;BME280;10465;42.686;23.364;2023-05-18T10:18:33;94922.13;;;15.54;84.97
20612;BME280;10465;42.686;23.364;2023-05-18T10:21:01;94890.88;;;15.43;85.99
20612;BME280;10465;42.686;23.364;2023-05-18T10:23:30;94922.13;;;15.67;86.20
20612;BME280;10465;42.686;23.364;2023-05-18T10:25:56;94930.13;;;15.67;85.76
20612;BME280;10465;42.686;23.364;2023-05-18T10:28:26;94936.78;;;15.61;83.86
20612;BME280;10465;42.686;23.364;2023-05-18T10:30:57;94936.44;;;15.62;82.64
20612;BME280;10465;42.686;23.364;2023-05-18T10:33:25;94935.44;;;15.54;82.91
20612;BME280;10465;42.686;23.364;2023-05-18T10:35:52;94932.78;;;15.54;83.20
20612;BME280;10465;42.686;23.364;2023-05-18T10:38:23;94924.47;;;15.56;81.84
20612;BME280;10465;42.686;23.364;2023-05-18T10:40:51;94943.59;;;15.70;81.25
20612;BME280;10465;42.686;23.364;2023-05-18T10:43:19;94952.94;;;15.76;79.78
20612;BME280;10465;42.686;23.364;2023-05-18T10:45:47;94935.69;;;15.62;79.78
20612;BME280;10465;42.686;23.364;2023-05-18T10:48:18;94955.28;;;15.66;79.95
20612;BME280;10465;42.686;23.364;2023-05-18T10:50:47;94937.13;;;15.59;80.51
20612;BME280;10465;42.686;23.364;2023-05-18T10:53:12;94958.84;;;15.70;81.73
20612;BME280;10465;42.686;23.364;2023-05-18T10:55:39;94939.66;;;15.55;81.61
20612;BME280;10465;42.686;23.364;2023-05-18T10:58:08;94970.38;;;15.74;79.80
20612;BME280;10465;42.686;23.364;2023-05-18T11:00:36;94956.81;;;15.67;79.39
20612;BME280;10465;42.686;23.364;2023-05-18T11:03:08;94957.59;;;15.67;80.13
20612;BME280;10465;42.686;23.364;2023-05-18T11:05:37;94967.19;;;15.68;80.61
20612;BME280;10465;42.686;23.364;2023-05-18T11:08:04;94954.94;;;15.67;81.24
20612;BME280;10465;42.686;23.364;2023-05-18T11:10:40;94962.00;;;15.51;81.28
20612;BME280;10465;42.686;23.364;2023-05-18T11:13:07;94968.03;;;15.60;80.58
20612;BME280;10465;42.686;23.364;2023-05-18T11:18:16;94980.06;;;15.66;84.08
20612;BME280;10465;42.686;23.364;2023-05-18T11:20:44;94967.94;;;15.56;83.92
20612;BME280;10465;42.686;23.364;2023-05-18T11:23:11;94981.47;;;15.51;83.46
20612;BME280;10465;42.686;23.364;2023-05-18T11:25:41;94979.69;;;14.52;88.50
20612;BME280;10465;42.686;23.364;2023-05-18T11:28:09;94979.97;;;14.09;90.44
20612;BME280;10465;42.686;23.364;2023-05-18T11:33:07;94990.81;;;14.46;90.22
20612;BME280;10465;42.686;23.364;2023-05-18T11:35:33;94996.34;;;14.41;88.88
20612;BME280;10465;42.686;23.364;2023-05-18T11:38:18;94948.81;;;14.09;89.78
20612;BME280;10465;42.686;23.364;2023-05-18T11:40:47;94994.94;;;14.22;90.93
20612;BME280;10465;42.686;23.364;2023-05-18T11:43:22;94992.25;;;14.43;90.39
20612;BME280;10465;42.686;23.364;2023-05-18T11:45:55;94959.72;;;13.96;89.55
20612;BME280;10465;42.686;23.364;2023-05-18T11:48:26;94997.03;;;14.58;88.92
20612;BME280;10465;42.686;23.364;2023-05-18T11:50:54;94979.97;;;14.09;89.10
20612;BME280;10465;42.686;23.364;2023-05-18T11:53:24;94984.84;;;14.07;89.05
20612;BME280;10465;42.686;23.364;2023-05-18T11:55:51;94997.00;;;14.38;89.12
20612;BME280;10465;42.686;23.364;2023-05-18T11:58:19;94987.31;;;14.33;88.03
20612;BME280;10465;42.686;23.364;2023-05-18T12:00:47;95002.38;;;14.29;90.62
20612;BME280;10465;42.686;23.364;2023-05-18T12:03:13;95002.66;;;14.15;92.91
20612;BME280;10465;42.686;23.364;2023-05-18T12:05:39;94998.81;;;14.04;94.20
20612;BME280;10465;42.686;23.364;2023-05-18T12:08:18;94976.28;;;13.72;94.17
20612;BME280;10465;42.686;23.364;2023-05-18T12:10:44;94979.13;;;13.96;94.43
20612;BME280;10465;42.686;23.364;2023-05-18T12:13:12;94983.88;;;14.12;93.75
20612;BME280;10465;42.686;23.364;2023-05-18T12:15:38;95006.69;;;14.42;93.15
20612;BME280;10465;42.686;23.364;2023-05-18T12:18:04;94975.91;;;14.32;92.61
20612;BME280;10465;42.686;23.364;2023-05-18T12:20:30;95011.66;;;14.52;92.37
20612;BME280;10465;42.686;23.364;2023-05-18T12:22:56;95012.56;;;14.56;90.87
20612;BME280;10465;42.686;23.364;2023-05-18T12:25:24;95009.38;;;14.63;89.94
20612;BME280;10465;42.686;23.364;2023-05-18T12:27:51;95021.38;;;14.48;90.16
20612;BME280;10465;42.686;23.364;2023-05-18T12:30:19;95005.53;;;14.52;89.12
20612;BME280;10465;42.686;23.364;2023-05-18T12:32:47;95016.88;;;14.40;90.76
20612;BME280;10465;42.686;23.364;2023-05-18T12:35:12;95002.84;;;14.31;89.68
20612;BME280;10465;42.686;23.364;2023-05-18T12:37:43;94999.63;;;14.46;90.01
20612;BME280;10465;42.686;23.364;2023-05-18T12:40:10;95010.59;;;14.66;89.01
20612;BME280;10465;42.686;23.364;2023-05-18T12:42:35;95021.50;;;14.73;88.85
20612;BME280;10465;42.686;23.364;2023-05-18T12:45:01;95005.84;;;14.71;89.80
20612;BME280;10465;42.686;23.364;2023-05-18T12:47:29;94998.94;;;14.70;90.30
20612;BME280;10465;42.686;23.364;2023-05-18T12:50:00;95021.69;;;14.89;88.74
20612;BME280;10465;42.686;23.364;2023-05-18T12:52:27;95022.25;;;14.94;88.74
20612;BME280;10465;42.686;23.364;2023-05-18T12:54:56;95021.06;;;15.04;91.62
20612;BME280;10465;42.686;23.364;2023-05-18T12:57:25;95024.16;;;15.06;92.64
20612;BME280;10465;42.686;23.364;2023-05-18T12:59:55;95015.63;;;15.00;93.33